createdAt,value
2019-04-11T00:00:01.773Z,10.94
2019-04-11T00:01:01.753Z,10.89
2019-04-11T00:02:02.559Z,10.81
2019-04-11T00:03:01.515Z,10.94
2019-04-11T00:04:01.900Z,10.84
2019-04-11T00:05:02.339Z,10.86
2019-04-11T00:06:01.423Z,10.90
2019-04-11T00:07:01.188Z,10.89
2019-04-11T00:08:01.833Z,10.86
2019-04-11T00:09:01.015Z,10.87
2019-04-11T00:10:00.936Z,10.84
2019-04-11T00:11:01.765Z,10.82
2019-04-11T00:12:01.985Z,10.81
2019-04-11T00:13:01.195Z,10.86
2019-04-11T00:14:00.604Z,10.93
2019-04-11T00:15:00.519Z,10.87
2019-04-11T00:16:01.305Z,10.82
2019-04-11T00:17:01.561Z,10.81
2019-04-11T00:18:00.658Z,10.81
2019-04-11T00:19:00.201Z,10.81
2019-04-11T00:20:00.107Z,10.86
2019-04-11T00:21:00.315Z,10.82
2019-04-11T00:21:59.970Z,10.87
2019-04-11T00:22:59.856Z,10.90
2019-04-11T00:24:00.736Z,10.82
2019-04-11T00:24:59.691Z,10.90
2019-04-11T00:26:00.057Z,10.99
2019-04-11T00:27:00.364Z,10.87
2019-04-11T00:27:59.445Z,10.87
2019-04-11T00:28:59.364Z,10.84
2019-04-11T00:29:59.702Z,10.86
2019-04-11T00:30:59.195Z,10.87
2019-04-11T00:31:59.116Z,10.75
2019-04-11T00:33:00.095Z,10.81
2019-04-11T00:33:58.950Z,10.79
2019-04-11T00:34:59.424Z,10.86
2019-04-11T00:35:59.815Z,10.75
2019-04-11T00:36:58.912Z,10.75
2019-04-11T00:37:59.316Z,10.76
2019-04-11T00:38:59.360Z,10.82
2019-04-11T00:39:59.601Z,10.74
2019-04-11T00:40:59.618Z,10.84
2019-04-11T00:41:58.691Z,10.86
2019-04-11T00:42:58.915Z,10.78
2019-04-11T00:43:58.680Z,10.72
2019-04-11T00:44:59.026Z,10.71
2019-04-11T00:45:58.202Z,10.75
2019-04-11T00:46:58.510Z,10.71
2019-04-11T00:47:58.143Z,10.67
2019-04-11T00:48:57.844Z,10.67
2019-04-11T00:49:58.806Z,10.64
2019-04-11T00:50:57.576Z,10.68
2019-04-11T00:51:58.945Z,10.61
2019-04-11T00:52:58.008Z,10.67
2019-04-11T00:53:58.296Z,10.54
2019-04-11T00:54:57.425Z,10.51
2019-04-11T00:55:57.125Z,10.54
2019-04-11T00:56:57.047Z,10.59
2019-04-11T00:57:57.130Z,10.53
2019-04-11T00:58:56.876Z,10.53
2019-04-11T00:59:56.801Z,10.46
2019-04-11T01:00:57.547Z,10.46
2019-04-11T01:01:56.863Z,10.42
2019-04-11T01:02:56.547Z,10.42
2019-04-11T01:03:56.463Z,10.48
2019-04-11T01:04:57.103Z,10.48
2019-04-11T01:05:56.684Z,10.44
2019-04-11T01:06:57.163Z,10.44
2019-04-11T01:07:57.696Z,10.46
2019-04-11T01:08:56.052Z,10.49
2019-04-11T01:09:56.877Z,10.42
2019-04-11T01:10:57.383Z,10.49
2019-04-11T01:11:56.333Z,10.49
2019-04-11T01:12:56.665Z,10.48
2019-04-11T01:13:55.836Z,10.40
2019-04-11T01:14:55.559Z,10.49
2019-04-11T01:15:56.501Z,10.49
2019-04-11T01:16:55.384Z,10.46
2019-04-11T01:17:55.958Z,10.42
2019-04-11T01:18:55.238Z,10.53
2019-04-11T01:19:55.335Z,10.54
2019-04-11T01:20:55.692Z,10.42
2019-04-11T01:21:55.057Z,10.53
2019-04-11T01:22:54.895Z,10.44
2019-04-11T01:23:55.437Z,10.44
2019-04-11T01:24:55.703Z,10.48
2019-04-11T01:25:54.919Z,10.34
2019-04-11T01:26:54.563Z,10.44
2019-04-11T01:27:54.481Z,10.31
2019-04-11T01:28:55.335Z,10.37
2019-04-11T01:29:54.307Z,10.26
2019-04-11T01:30:55.428Z,10.35
2019-04-11T01:31:54.149Z,10.31
2019-04-11T01:32:54.878Z,10.33
2019-04-11T01:33:53.973Z,10.33
2019-04-11T01:34:55.016Z,10.28
2019-04-11T01:35:53.812Z,10.34
2019-04-11T01:36:53.734Z,10.31
2019-04-11T01:37:53.642Z,10.33
2019-04-11T01:38:54.712Z,10.34
2019-04-11T01:39:53.702Z,10.35
2019-04-11T01:40:54.054Z,10.30
2019-04-11T01:41:53.312Z,10.37
2019-04-11T01:42:53.376Z,10.35
2019-04-11T01:44:00.214Z,10.28
2019-04-11T01:44:53.061Z,10.33
2019-04-11T01:45:53.800Z,10.28
2019-04-11T01:46:54.103Z,10.33
2019-04-11T01:47:53.276Z,10.33
2019-04-11T01:48:52.737Z,10.30
2019-04-11T01:49:52.680Z,10.26
2019-04-11T01:50:53.543Z,10.22
2019-04-11T01:51:52.487Z,10.19
2019-04-11T01:52:52.990Z,10.20
2019-04-11T01:53:52.312Z,10.23
2019-04-11T01:54:52.236Z,10.25
2019-04-11T01:55:52.565Z,10.28
2019-04-11T01:56:52.066Z,10.22
2019-04-11T01:57:52.000Z,10.13
2019-04-11T01:58:53.028Z,10.16
2019-04-11T01:59:51.824Z,10.09
2019-04-11T02:00:52.547Z,10.05
2019-04-11T02:01:52.614Z,10.04
2019-04-11T02:02:52.824Z,10.05
2019-04-11T02:03:51.754Z,10.15
2019-04-11T02:04:52.293Z,10.13
2019-04-11T02:05:51.584Z,10.19
2019-04-11T02:06:51.237Z,10.07
2019-04-11T02:07:51.154Z,10.09
2019-04-11T02:08:51.386Z,10.07
2019-04-11T02:09:50.986Z,10.09
2019-04-11T02:10:50.909Z,10.01
2019-04-11T02:11:51.944Z,10.04
2019-04-11T02:12:51.106Z,9.98
2019-04-11T02:13:50.660Z,10.01
2019-04-11T02:14:50.568Z,10.02
2019-04-11T02:15:50.496Z,9.97
2019-04-11T02:16:52.030Z,9.98
2019-04-11T02:17:50.932Z,9.97
2019-04-11T02:18:50.238Z,10.09
2019-04-11T02:19:50.301Z,9.95
2019-04-11T02:20:50.071Z,10.15
2019-04-11T02:21:49.987Z,10.05
2019-04-11T02:22:50.787Z,10.04
2019-04-11T02:23:51.032Z,10.05
2019-04-11T02:24:50.147Z,10.05
2019-04-11T02:25:49.658Z,10.12
2019-04-11T02:26:50.356Z,10.12
2019-04-11T02:27:50.505Z,10.09
2019-04-11T02:28:49.411Z,10.15
2019-04-11T02:29:49.325Z,10.07
2019-04-11T02:30:51.004Z,10.04
2019-04-11T02:31:50.613Z,10.12
2019-04-11T02:32:49.820Z,10.04
2019-04-11T02:33:49.422Z,10.12
2019-04-11T02:34:50.735Z,10.07
2019-04-11T02:35:49.447Z,10.09
2019-04-11T02:36:49.130Z,10.09
2019-04-11T02:37:51.780Z,10.07
2019-04-11T02:38:54.167Z,10.07
2019-04-11T02:39:49.372Z,10.05
2019-04-11T02:40:49.861Z,10.09
2019-04-11T02:41:48.328Z,10.04
2019-04-11T02:42:49.722Z,10.05
2019-04-11T02:43:49.005Z,10.02
2019-04-11T02:45:06.376Z,10.07
2019-04-11T02:45:58.270Z,10.07
2019-04-11T02:46:58.033Z,10.10
2019-04-11T02:47:50.735Z,10.09
2019-04-11T02:48:47.749Z,10.09
2019-04-11T02:49:47.850Z,10.02
2019-04-11T02:50:48.029Z,10.05
2019-04-11T02:51:49.363Z,9.99
2019-04-11T02:52:47.639Z,9.99
2019-04-11T02:53:47.427Z,10.07
2019-04-11T02:54:47.426Z,10.07
2019-04-11T02:55:47.451Z,10.02
2019-04-11T02:56:48.858Z,10.07
2019-04-11T02:57:48.322Z,9.97
2019-04-11T02:58:48.159Z,10.04
2019-04-11T02:59:48.912Z,9.98
2019-04-11T03:00:46.970Z,9.99
2019-04-11T03:01:48.441Z,10.17
2019-04-11T03:02:47.919Z,10.04
2019-04-11T03:03:47.447Z,10.15
2019-04-11T03:04:47.949Z,10.04
2019-04-11T03:05:47.003Z,9.95
2019-04-11T03:06:47.795Z,9.98
2019-04-11T03:07:47.624Z,9.94
2019-04-11T03:08:46.510Z,9.99
2019-04-11T03:09:48.586Z,9.94
2019-04-11T03:10:46.213Z,9.87
2019-04-11T03:11:47.243Z,9.79
2019-04-11T03:12:47.584Z,9.76
2019-04-11T03:13:46.492Z,9.74
2019-04-11T03:15:02.753Z,9.79
2019-04-11T03:16:02.158Z,9.68
2019-04-11T03:16:56.662Z,9.83
2019-04-11T03:17:47.988Z,9.89
2019-04-11T03:18:54.870Z,9.89
2019-04-11T03:19:59.323Z,9.94
2019-04-11T03:20:49.672Z,9.84
2019-04-11T03:21:46.966Z,9.86
2019-04-11T03:22:48.926Z,9.94
2019-04-11T03:23:44.827Z,9.84
2019-04-11T03:24:44.750Z,9.91
2019-04-11T03:25:45.001Z,9.73
2019-04-11T03:26:45.767Z,9.69
2019-04-11T03:27:45.256Z,9.69
2019-04-11T03:28:47.442Z,9.66
2019-04-11T03:29:45.251Z,9.66
2019-04-11T03:31:09.384Z,9.68
2019-04-11T03:32:33.655Z,9.65
2019-04-11T03:34:31.439Z,9.76
2019-04-11T03:35:51.726Z,9.77
2019-04-11T03:36:38.077Z,9.72
2019-04-11T03:37:21.105Z,9.76
2019-04-11T03:38:03.810Z,9.66
2019-04-11T03:39:07.669Z,9.66
2019-04-11T03:40:02.434Z,9.74
2019-04-11T03:41:00.579Z,9.68
2019-04-11T03:41:59.896Z,9.62
2019-04-11T03:42:59.471Z,9.61
2019-04-11T03:43:54.088Z,9.65
2019-04-11T03:44:47.672Z,9.64
2019-04-11T03:46:01.438Z,9.66
2019-04-11T03:47:01.470Z,9.65
2019-04-11T03:47:59.472Z,9.66
2019-04-11T03:48:59.055Z,9.59
2019-04-11T03:49:50.995Z,9.62
2019-04-11T03:50:43.113Z,9.65
2019-04-11T03:51:43.667Z,9.59
2019-04-11T03:52:43.032Z,9.61
2019-04-11T03:53:43.183Z,9.62
2019-04-11T03:54:42.691Z,9.64
2019-04-11T03:55:43.398Z,9.69
2019-04-11T03:56:43.293Z,9.61
2019-04-11T03:57:42.200Z,9.68
2019-04-11T03:58:43.592Z,9.66
2019-04-11T03:59:41.821Z,9.69
2019-04-11T04:00:44.391Z,9.68
2019-04-11T04:01:42.430Z,9.69
2019-04-11T04:02:41.586Z,9.66
2019-04-11T04:03:42.550Z,9.66
2019-04-11T04:04:41.556Z,9.68
2019-04-11T04:05:42.292Z,9.65
2019-04-11T04:06:41.521Z,9.64
2019-04-11T04:07:41.164Z,9.61
2019-04-11T04:08:42.359Z,9.58
2019-04-11T04:09:41.852Z,9.48
2019-04-11T04:10:41.656Z,9.41
2019-04-11T04:11:41.004Z,9.51
2019-04-11T04:12:40.735Z,9.46
2019-04-11T04:13:40.653Z,9.39
2019-04-11T04:14:42.874Z,9.43
2019-04-11T04:15:54.093Z,9.41
2019-04-11T04:16:45.607Z,9.40
2019-04-11T04:17:41.326Z,9.43
2019-04-11T04:18:40.412Z,9.41
2019-04-11T04:19:40.252Z,9.36
2019-04-11T04:20:41.819Z,9.37
2019-04-11T04:21:40.761Z,9.47
2019-04-11T04:22:41.901Z,9.37
2019-04-11T04:23:40.886Z,9.44
2019-04-11T04:24:40.802Z,9.46
2019-04-11T04:25:42.748Z,9.47
2019-04-11T04:26:41.056Z,9.46
2019-04-11T04:27:41.034Z,9.48
2019-04-11T04:28:40.809Z,9.31
2019-04-11T04:29:41.124Z,9.34
2019-04-11T04:30:41.037Z,9.31
2019-04-11T04:31:40.566Z,9.41
2019-04-11T04:32:40.477Z,9.34
2019-04-11T04:33:40.066Z,9.28
2019-04-11T04:34:40.170Z,9.25
2019-04-11T04:35:40.290Z,9.23
2019-04-11T04:36:40.191Z,9.19
2019-04-11T04:37:38.918Z,9.26
2019-04-11T04:38:39.548Z,9.06
2019-04-11T04:39:39.751Z,9.13
2019-04-11T04:40:51.187Z,9.00
2019-04-11T04:41:45.757Z,9.04
2019-04-11T04:42:44.502Z,9.06
2019-04-11T04:43:38.843Z,9.03
2019-04-11T04:44:38.228Z,9.14
2019-04-11T04:46:00.227Z,9.08
2019-04-11T04:46:52.847Z,9.18
2019-04-11T04:47:46.205Z,9.14
2019-04-11T04:48:38.127Z,9.10
2019-04-11T04:49:38.844Z,9.00
2019-04-11T04:50:39.225Z,9.04
2019-04-11T04:51:39.037Z,9.10
2019-04-11T04:52:38.198Z,8.92
2019-04-11T04:53:38.900Z,8.89
2019-04-11T04:54:38.643Z,8.91
2019-04-11T04:55:37.136Z,8.89
2019-04-11T04:56:39.069Z,8.97
2019-04-11T04:57:37.612Z,9.00
2019-04-11T04:58:37.867Z,8.97
2019-04-11T04:59:38.421Z,9.10
2019-04-11T05:00:37.633Z,9.04
2019-04-11T05:03:09.761Z,9.00
2019-04-11T05:04:09.186Z,9.06
2019-04-11T05:06:12.020Z,9.00
2019-04-11T05:07:11.800Z,9.08
2019-04-11T05:08:11.913Z,9.02
2019-04-11T05:09:12.830Z,9.06
2019-04-11T05:10:11.503Z,9.03
2019-04-11T05:11:11.422Z,9.04
2019-04-11T05:12:11.938Z,9.03
2019-04-11T05:13:11.914Z,9.03
2019-04-11T05:14:12.426Z,9.02
2019-04-11T05:15:12.200Z,9.06
2019-04-11T05:16:17.326Z,9.08
2019-04-11T05:17:10.912Z,9.00
2019-04-11T05:18:11.464Z,9.11
2019-04-11T05:19:10.746Z,9.06
2019-04-11T05:20:11.863Z,9.14
2019-04-11T05:21:10.775Z,9.06
2019-04-11T05:22:10.616Z,9.10
2019-04-11T05:23:10.411Z,9.10
2019-04-11T05:24:10.402Z,9.11
2019-04-11T05:25:10.624Z,9.10
2019-04-11T05:26:10.952Z,9.08
2019-04-11T05:27:10.449Z,9.02
2019-04-11T05:28:09.990Z,9.06
2019-04-11T05:29:11.127Z,8.92
2019-04-11T05:30:09.823Z,8.94
2019-04-11T05:31:10.164Z,8.95
2019-04-11T05:32:09.655Z,9.04
2019-04-11T05:33:09.625Z,8.97
2019-04-11T05:34:09.934Z,8.91
2019-04-11T05:35:09.415Z,8.92
2019-04-11T05:36:09.315Z,9.06
2019-04-11T05:37:09.230Z,9.02
2019-04-11T05:38:10.346Z,8.95
2019-04-11T05:39:09.067Z,9.04
2019-04-11T05:40:09.277Z,8.97
2019-04-11T05:41:12.094Z,9.02
2019-04-11T05:42:09.180Z,9.08
2019-04-11T05:43:08.748Z,9.11
2019-04-11T05:44:10.762Z,9.10
2019-04-11T05:45:16.958Z,9.13
2019-04-11T05:46:25.043Z,9.16
2019-04-11T05:47:09.026Z,9.00
2019-04-11T05:48:09.320Z,9.04
2019-04-11T05:49:09.226Z,9.04
2019-04-11T05:50:11.632Z,9.08
2019-04-11T05:51:08.869Z,9.06
2019-04-11T05:52:08.157Z,9.08
2019-04-11T05:53:07.941Z,9.03
2019-04-11T05:54:09.281Z,9.04
2019-04-11T05:55:10.594Z,9.06
2019-04-11T05:56:07.640Z,9.10
2019-04-11T05:57:07.551Z,9.13
2019-04-11T05:58:11.412Z,9.10
2019-04-11T05:59:07.454Z,9.13
2019-04-11T06:00:07.533Z,9.10
2019-04-11T06:01:09.950Z,8.99
2019-04-11T06:02:07.805Z,8.97
2019-04-11T06:03:07.829Z,8.88
2019-04-11T06:04:07.884Z,8.94
2019-04-11T06:05:06.930Z,8.85
2019-04-11T06:06:06.800Z,8.84
2019-04-11T06:07:08.432Z,8.94
2019-04-11T06:08:06.742Z,8.94
2019-04-11T06:09:09.259Z,8.95
2019-04-11T06:10:09.469Z,8.97
2019-04-11T06:11:06.491Z,8.95
2019-04-11T06:12:07.370Z,8.97
2019-04-11T06:13:06.213Z,9.06
2019-04-11T06:14:07.349Z,8.94
2019-04-11T06:15:06.071Z,9.02
2019-04-11T06:16:06.363Z,9.10
2019-04-11T06:17:07.184Z,9.10
2019-04-11T06:18:06.938Z,8.94
2019-04-11T06:19:06.054Z,8.92
2019-04-11T06:20:06.156Z,8.95
2019-04-11T06:21:05.540Z,8.97
2019-04-11T06:22:06.560Z,9.04
2019-04-11T06:23:06.559Z,9.10
2019-04-11T06:24:05.291Z,9.02
2019-04-11T06:25:06.176Z,9.03
2019-04-11T06:26:06.744Z,9.10
2019-04-11T06:27:06.144Z,9.02
2019-04-11T06:28:06.111Z,9.06
2019-04-11T06:29:14.653Z,9.11
2019-04-11T06:30:05.499Z,9.04
2019-04-11T06:31:05.959Z,9.13
2019-04-11T06:32:05.657Z,9.03
2019-04-11T06:33:04.657Z,9.10
2019-04-11T06:34:05.018Z,9.14
2019-04-11T06:35:04.369Z,9.13
2019-04-11T06:36:04.325Z,9.16
2019-04-11T06:37:05.504Z,9.16
2019-04-11T06:38:04.117Z,9.14
2019-04-11T06:39:05.056Z,9.11
2019-04-11T06:40:04.204Z,9.06
2019-04-11T06:41:04.099Z,9.16
2019-04-11T06:42:04.826Z,9.08
2019-04-11T06:43:03.704Z,9.21
2019-04-11T06:44:04.710Z,9.16
2019-04-11T06:45:04.067Z,9.21
2019-04-11T06:46:03.451Z,9.10
2019-04-11T06:47:03.784Z,9.14
2019-04-11T06:48:03.282Z,9.13
2019-04-11T06:49:04.381Z,9.14
2019-04-11T06:50:03.119Z,9.10
2019-04-11T06:51:03.875Z,9.14
2019-04-11T06:52:02.946Z,9.25
2019-04-11T06:53:02.864Z,9.25
2019-04-11T06:54:02.779Z,9.28
2019-04-11T06:55:02.798Z,9.31
2019-04-11T06:56:03.598Z,9.34
2019-04-11T06:57:02.525Z,9.26
2019-04-11T06:58:02.703Z,9.28
2019-04-11T06:59:02.360Z,9.25
2019-04-11T07:00:02.972Z,9.25
2019-04-11T07:01:03.478Z,9.26
2019-04-11T07:02:08.832Z,9.31
2019-04-11T07:03:03.413Z,9.34
2019-04-11T07:04:03.037Z,9.29
2019-04-11T07:05:02.524Z,9.28
2019-04-11T07:06:02.894Z,9.25
2019-04-11T07:07:02.298Z,9.29
2019-04-11T07:08:02.090Z,9.28
2019-04-11T07:09:01.529Z,9.28
2019-04-11T07:10:02.124Z,9.25
2019-04-11T07:11:01.356Z,9.25
2019-04-11T07:12:01.373Z,9.25
2019-04-11T07:13:01.191Z,9.22
2019-04-11T07:14:01.897Z,9.25
2019-04-11T07:15:02.439Z,9.22
2019-04-11T07:16:00.941Z,9.31
2019-04-11T07:17:05.699Z,9.22
2019-04-11T07:18:01.104Z,9.36
2019-04-11T07:19:00.718Z,9.36
2019-04-11T07:20:00.611Z,9.44
2019-04-11T07:21:00.690Z,9.39
2019-04-11T07:22:00.440Z,9.31
2019-04-11T07:23:01.506Z,9.34
2019-04-11T07:24:00.269Z,9.39
2019-04-11T07:25:00.189Z,9.47
2019-04-11T07:26:00.371Z,9.39
2019-04-11T07:27:00.940Z,9.47
2019-04-11T07:27:59.945Z,9.48
2019-04-11T07:29:00.674Z,9.46
2019-04-11T07:29:59.776Z,9.47
2019-04-11T07:31:00.361Z,9.46
2019-04-11T07:32:00.916Z,9.50
2019-04-11T07:32:59.525Z,9.44
2019-04-11T07:34:00.746Z,9.51
2019-04-11T07:35:00.040Z,9.48
2019-04-11T07:35:59.824Z,9.44
2019-04-11T07:37:00.256Z,9.44
2019-04-11T07:37:59.109Z,9.28
2019-04-11T07:38:59.023Z,9.48
2019-04-11T07:39:58.942Z,9.47
2019-04-11T07:40:59.014Z,9.36
2019-04-11T07:42:00.188Z,9.31
2019-04-11T07:43:05.101Z,9.32
2019-04-11T07:43:58.610Z,9.46
2019-04-11T07:44:59.650Z,9.44
2019-04-11T07:45:58.443Z,9.43
2019-04-11T07:46:58.361Z,9.46
2019-04-11T07:47:58.396Z,9.47
2019-04-11T07:48:59.314Z,9.47
2019-04-11T07:49:58.231Z,9.51
2019-04-11T07:50:58.030Z,9.46
2019-04-11T07:51:58.201Z,9.47
2019-04-11T07:52:58.265Z,9.50
2019-04-11T07:53:57.783Z,9.55
2019-04-11T07:54:57.696Z,9.61
2019-04-11T07:56:00.527Z,9.65
2019-04-11T07:56:58.456Z,9.58
2019-04-11T07:57:57.457Z,9.68
2019-04-11T07:58:58.373Z,9.62
2019-04-11T07:59:57.859Z,9.69
2019-04-11T08:00:57.193Z,9.54
2019-04-11T08:01:57.114Z,9.65
2019-04-11T08:02:57.436Z,9.66
2019-04-11T08:03:57.924Z,9.74
2019-04-11T08:04:57.664Z,9.76
2019-04-11T08:05:56.782Z,9.76
2019-04-11T08:06:56.693Z,9.76
2019-04-11T08:07:57.338Z,9.87
2019-04-11T08:08:56.529Z,9.87
2019-04-11T08:09:57.143Z,9.87
2019-04-11T08:10:56.366Z,9.82
2019-04-11T08:11:56.288Z,9.87
2019-04-11T08:12:56.200Z,9.72
2019-04-11T08:13:56.669Z,9.76
2019-04-11T08:14:57.120Z,9.73
2019-04-11T08:15:55.949Z,9.76
2019-04-11T08:16:55.868Z,9.72
2019-04-11T08:17:56.335Z,9.79
2019-04-11T08:18:55.704Z,9.82
2019-04-11T08:19:55.624Z,9.80
2019-04-11T08:20:55.535Z,9.86
2019-04-11T08:21:56.647Z,9.84
2019-04-11T08:22:55.371Z,9.86
2019-04-11T08:23:56.145Z,9.94
2019-04-11T08:24:55.207Z,9.94
2019-04-11T08:25:55.791Z,9.91
2019-04-11T08:26:55.424Z,9.95
2019-04-11T08:28:00.601Z,9.92
2019-04-11T08:29:05.059Z,9.86
2019-04-11T08:29:54.826Z,9.95
2019-04-11T08:30:55.211Z,9.95
2019-04-11T08:31:56.184Z,9.98
2019-04-11T08:32:54.540Z,10.02
2019-04-11T08:33:55.114Z,10.01
2019-04-11T08:34:55.422Z,10.02
2019-04-11T08:35:55.604Z,10.04
2019-04-11T08:36:54.900Z,9.97
2019-04-11T08:37:54.133Z,9.97
2019-04-11T08:38:54.050Z,9.95
2019-04-11T08:39:53.967Z,9.95
2019-04-11T08:40:53.882Z,10.04
2019-04-11T08:41:53.808Z,10.02
2019-04-11T08:42:54.812Z,10.04
2019-04-11T08:43:53.637Z,10.05
2019-04-11T08:44:54.222Z,9.97
2019-04-11T08:45:54.122Z,9.98
2019-04-11T08:46:53.938Z,10.05
2019-04-11T08:47:57.321Z,10.02
2019-04-11T08:48:53.223Z,10.10
2019-04-11T08:49:54.145Z,10.01
2019-04-11T08:50:53.058Z,10.12
2019-04-11T08:51:53.764Z,10.02
2019-04-11T08:52:54.130Z,10.02
2019-04-11T08:53:53.151Z,10.10
2019-04-11T08:54:53.521Z,9.95
2019-04-11T08:55:56.215Z,10.10
2019-04-11T08:56:53.611Z,10.05
2019-04-11T08:57:52.478Z,10.10
2019-04-11T08:58:53.091Z,10.04
2019-04-11T08:59:53.475Z,10.05
2019-04-11T09:00:53.082Z,10.07
2019-04-11T09:01:52.149Z,10.13
2019-04-11T09:02:53.342Z,9.99
2019-04-11T09:04:02.098Z,10.05
2019-04-11T09:05:03.204Z,10.04
2019-04-11T09:05:51.819Z,10.10
2019-04-11T09:06:52.590Z,10.12
2019-04-11T09:07:52.040Z,10.19
2019-04-11T09:08:51.574Z,10.17
2019-04-11T09:09:51.599Z,10.23
2019-04-11T09:10:52.532Z,10.20
2019-04-11T09:11:51.326Z,10.22
2019-04-11T09:12:51.248Z,10.20
2019-04-11T09:13:51.453Z,10.30
2019-04-11T09:14:51.079Z,10.31
2019-04-11T09:15:51.017Z,10.34
2019-04-11T09:16:52.027Z,10.33
2019-04-11T09:17:58.988Z,10.38
2019-04-11T09:18:50.752Z,10.34
2019-04-11T09:19:51.443Z,10.37
2019-04-11T09:20:51.727Z,10.38
2019-04-11T09:21:50.804Z,10.46
2019-04-11T09:22:50.425Z,10.49
2019-04-11T09:23:50.340Z,10.44
2019-04-11T09:24:50.570Z,10.44
2019-04-11T09:25:52.206Z,10.46
2019-04-11T09:26:50.093Z,10.57
2019-04-11T09:27:51.068Z,10.63
2019-04-11T09:28:49.932Z,10.67
2019-04-11T09:29:50.365Z,10.68
2019-04-11T09:30:49.766Z,10.67
2019-04-11T09:31:49.686Z,10.76
2019-04-11T09:32:50.662Z,10.71
2019-04-11T09:33:49.518Z,10.79
2019-04-11T09:34:50.147Z,10.87
2019-04-11T09:35:49.363Z,10.94
2019-04-11T09:36:49.387Z,10.92
2019-04-11T09:37:49.659Z,10.89
2019-04-11T09:38:49.115Z,10.79
2019-04-11T09:39:49.033Z,10.82
2019-04-11T09:40:50.021Z,10.86
2019-04-11T09:41:49.023Z,10.87
2019-04-11T09:42:48.788Z,10.92
2019-04-11T09:43:48.705Z,10.92
2019-04-11T09:44:49.102Z,11.00
2019-04-11T09:45:48.545Z,10.81
2019-04-11T09:46:48.871Z,11.00
2019-04-11T09:47:48.382Z,10.97
2019-04-11T09:48:48.446Z,11.07
2019-04-11T09:49:48.454Z,10.99
2019-04-11T09:50:48.973Z,11.11
2019-04-11T09:51:48.060Z,11.04
2019-04-11T09:52:47.981Z,11.02
2019-04-11T09:53:47.898Z,11.11
2019-04-11T09:54:48.484Z,11.10
2019-04-11T09:55:47.921Z,11.22
2019-04-11T09:56:47.658Z,11.23
2019-04-11T09:57:48.256Z,11.33
2019-04-11T09:58:47.661Z,11.25
2019-04-11T09:59:47.723Z,11.30
2019-04-11T10:00:47.455Z,11.30
2019-04-11T10:01:47.416Z,11.37
2019-04-11T10:02:48.255Z,11.43
2019-04-11T10:03:47.105Z,11.44
2019-04-11T10:04:48.084Z,11.35
2019-04-11T10:05:48.293Z,11.45
2019-04-11T10:06:46.852Z,11.48
2019-04-11T10:07:47.909Z,11.43
2019-04-11T10:08:46.930Z,11.30
2019-04-11T10:09:46.613Z,11.43
2019-04-11T10:10:46.713Z,11.44
2019-04-11T10:11:46.450Z,11.44
2019-04-11T10:12:46.555Z,11.52
2019-04-11T10:13:46.286Z,11.44
2019-04-11T10:14:46.210Z,11.48
2019-04-11T10:15:47.252Z,11.59
2019-04-11T10:16:46.529Z,11.44
2019-04-11T10:17:46.412Z,11.55
2019-04-11T10:18:45.889Z,11.45
2019-04-11T10:19:46.431Z,11.60
2019-04-11T10:20:45.728Z,11.51
2019-04-11T10:21:45.764Z,11.57
2019-04-11T10:22:45.948Z,11.59
2019-04-11T10:23:45.486Z,11.59
2019-04-11T10:24:46.331Z,11.59
2019-04-11T10:25:45.591Z,11.62
2019-04-11T10:26:45.249Z,11.68
2019-04-11T10:27:45.169Z,11.63
2019-04-11T10:28:45.963Z,11.66
2019-04-11T10:29:45.031Z,11.68
2019-04-11T10:30:46.031Z,11.65
2019-04-11T10:31:44.845Z,11.73
2019-04-11T10:32:45.558Z,11.77
2019-04-11T10:33:44.923Z,11.73
2019-04-11T10:34:45.817Z,11.81
2019-04-11T10:35:44.521Z,11.81
2019-04-11T10:36:45.362Z,11.83
2019-04-11T10:37:44.374Z,11.83
2019-04-11T10:38:44.702Z,11.87
2019-04-11T10:39:44.203Z,11.83
2019-04-11T10:40:44.208Z,11.80
2019-04-11T10:41:44.211Z,11.80
2019-04-11T10:42:44.466Z,11.77
2019-04-11T10:43:44.657Z,11.83
2019-04-11T10:44:43.803Z,11.80
2019-04-11T10:45:44.803Z,11.73
2019-04-11T10:46:43.914Z,11.77
2019-04-11T10:47:43.565Z,11.80
2019-04-11T10:48:45.277Z,11.84
2019-04-11T10:49:44.188Z,11.84
2019-04-11T10:50:44.404Z,11.81
2019-04-11T10:51:43.244Z,11.84
2019-04-11T10:52:43.164Z,11.78
2019-04-11T10:53:43.677Z,11.80
2019-04-11T10:54:43.009Z,11.83
2019-04-11T10:55:44.024Z,11.83
2019-04-11T10:56:43.298Z,11.80
2019-04-11T10:57:42.771Z,11.77
2019-04-11T10:58:42.768Z,11.86
2019-04-11T10:59:42.928Z,11.86
2019-04-11T11:00:43.188Z,11.88
2019-04-11T11:01:42.444Z,11.88
2019-04-11T11:02:51.021Z,11.91
2019-04-11T11:04:46.693Z,11.86
2019-04-11T11:05:47.223Z,11.95
2019-04-11T11:07:51.058Z,11.94
2019-04-11T11:08:50.797Z,12.09
2019-04-11T11:10:57.778Z,12.04
2019-04-11T11:11:57.531Z,11.99
2019-04-11T11:13:50.993Z,12.18
2019-04-11T11:14:51.958Z,12.09
2019-04-11T11:15:51.651Z,12.10
2019-04-11T11:16:50.828Z,11.97
2019-04-11T11:18:21.707Z,12.00
2019-04-11T11:19:20.847Z,12.02
2019-04-11T11:20:04.089Z,12.00
2019-04-11T11:20:55.292Z,12.03
2019-04-11T11:21:51.273Z,12.06
2019-04-11T11:22:50.056Z,12.00
2019-04-11T11:23:50.765Z,12.06
2019-04-11T11:24:50.394Z,12.03
2019-04-11T11:25:51.563Z,12.03
2019-04-11T11:26:51.995Z,12.02
2019-04-11T11:27:50.294Z,11.99
2019-04-11T11:28:50.847Z,11.97
2019-04-11T11:29:49.501Z,12.07
2019-04-11T11:30:50.333Z,12.02
2019-04-11T11:31:49.347Z,12.02
2019-04-11T11:32:49.681Z,12.04
2019-04-11T11:33:49.182Z,12.02
2019-04-11T11:34:52.324Z,12.09
2019-04-11T11:35:50.014Z,12.09
2019-04-11T11:36:50.463Z,12.03
2019-04-11T11:37:49.303Z,12.07
2019-04-11T11:38:48.781Z,12.09
2019-04-11T11:39:49.123Z,12.06
2019-04-11T11:40:48.625Z,12.15
2019-04-11T11:41:48.936Z,12.18
2019-04-11T11:42:48.462Z,12.17
2019-04-11T11:43:49.542Z,12.10
2019-04-11T11:44:48.827Z,12.02
2019-04-11T11:45:51.858Z,12.13
2019-04-11T11:46:48.143Z,12.21
2019-04-11T11:47:49.037Z,12.15
2019-04-11T11:48:52.236Z,12.15
2019-04-11T11:49:55.579Z,12.12
2019-04-11T11:50:50.524Z,12.10
2019-04-11T11:51:47.831Z,12.04
2019-04-11T11:52:48.887Z,12.07
2019-04-11T11:53:47.586Z,12.10
2019-04-11T11:54:48.162Z,12.21
2019-04-11T11:55:47.423Z,12.20
2019-04-11T11:56:48.635Z,12.37
2019-04-11T11:57:47.264Z,12.47
2019-04-11T11:58:52.924Z,12.60
2019-04-11T11:59:48.307Z,12.68
2019-04-11T12:00:49.598Z,12.65
2019-04-11T12:01:49.712Z,12.72
2019-04-11T12:02:49.057Z,12.61
2019-04-11T12:03:46.801Z,12.67
2019-04-11T12:04:46.711Z,12.76
2019-04-11T12:05:49.077Z,12.76
2019-04-11T12:06:48.955Z,12.83
2019-04-11T12:07:47.324Z,12.87
2019-04-11T12:08:48.275Z,12.86
2019-04-11T12:09:46.722Z,12.86
2019-04-11T12:10:46.235Z,12.91
2019-04-11T12:11:46.384Z,13.08
2019-04-11T12:12:46.416Z,13.04
2019-04-11T12:13:47.338Z,13.00
2019-04-11T12:14:46.856Z,12.98
2019-04-11T12:15:45.842Z,13.01
2019-04-11T12:16:48.211Z,12.90
2019-04-11T12:17:46.930Z,13.00
2019-04-11T12:18:48.604Z,12.91
2019-04-11T12:19:52.963Z,12.91
2019-04-11T12:20:47.627Z,12.83
2019-04-11T12:21:48.572Z,12.87
2019-04-11T12:22:45.324Z,12.93
2019-04-11T12:23:55.560Z,12.80
2019-04-11T12:24:45.182Z,12.83
2019-04-11T12:25:45.201Z,12.83
2019-04-11T12:26:46.189Z,12.80
2019-04-11T12:27:45.724Z,12.82
2019-04-11T12:28:45.786Z,12.83
2019-04-11T12:29:47.930Z,12.86
2019-04-11T12:30:44.938Z,12.82
2019-04-11T12:31:44.586Z,12.83
2019-04-11T12:32:44.515Z,12.82
2019-04-11T12:33:45.444Z,12.87
2019-04-11T12:34:45.159Z,12.85
2019-04-11T12:35:44.419Z,12.82
2019-04-11T12:36:50.110Z,12.95
2019-04-11T12:37:45.358Z,13.00
2019-04-11T12:38:44.036Z,12.93
2019-04-11T12:39:43.958Z,13.03
2019-04-11T12:40:43.895Z,13.28
2019-04-11T12:41:43.802Z,13.50
2019-04-11T12:42:43.721Z,13.65
2019-04-11T12:43:43.646Z,13.71
2019-04-11T12:44:43.571Z,13.81
2019-04-11T12:45:43.491Z,13.77
2019-04-11T12:46:43.414Z,13.71
2019-04-11T12:47:43.338Z,13.78
2019-04-11T12:48:43.275Z,13.74
2019-04-11T12:49:52.441Z,13.74
2019-04-11T12:50:43.107Z,13.75
2019-04-11T12:51:43.060Z,13.71
2019-04-11T12:52:42.953Z,13.71
2019-04-11T12:53:42.874Z,13.86
2019-04-11T12:54:42.805Z,14.05
2019-04-11T12:55:42.720Z,14.37
2019-04-11T12:56:42.667Z,14.78
2019-04-11T12:57:42.603Z,15.00
2019-04-11T12:58:42.490Z,15.15
2019-04-11T12:59:42.421Z,15.31
2019-04-11T13:00:42.374Z,15.24
2019-04-11T13:01:42.269Z,15.00
2019-04-11T13:02:42.198Z,15.02
2019-04-11T13:03:42.124Z,15.24
2019-04-11T13:04:44.167Z,15.61
2019-04-11T13:05:44.247Z,15.79
2019-04-11T13:06:41.936Z,15.92
2019-04-11T13:07:41.832Z,16.13
2019-04-11T13:08:41.766Z,16.21
2019-04-11T13:09:43.848Z,16.39